createdAt,value
2022-09-04T00:02:24.958Z,1010.1
2022-09-04T00:07:31.353Z,1010.1
2022-09-04T00:12:27.737Z,1010.1
2022-09-04T00:18:28.227Z,1010.2
2022-09-04T00:22:40.508Z,1010.2
2022-09-04T00:28:16.949Z,1010.1
2022-09-04T00:33:03.376Z,1010.3
2022-09-04T00:39:22.023Z,1010.4
2022-09-04T00:43:36.548Z,1010.3
2022-09-04T00:48:26.940Z,1010.5
2022-09-04T00:53:29.282Z,1010.5
2022-09-04T00:58:35.654Z,1010.5
2022-09-04T01:03:42.031Z,1010.5
2022-09-04T01:08:48.429Z,1010.6
2022-09-04T01:14:18.861Z,1010.6
2022-09-04T01:19:25.260Z,1010.7
2022-09-04T01:23:57.717Z,1010.7
2022-09-04T01:29:14.230Z,1010.6
2022-09-04T01:34:20.719Z,1010.8
2022-09-04T01:39:27.155Z,1010.8
2022-09-04T01:44:33.503Z,1010.7
2022-09-04T01:49:39.848Z,1010.7
2022-09-04T01:54:36.201Z,1010.7
2022-09-04T01:59:53.831Z,1010.7
2022-09-04T02:04:59.028Z,1010.8
2022-09-04T02:10:05.519Z,1010.6
2022-09-04T02:16:24.072Z,1010.7
2022-09-04T02:20:38.324Z,1010.7
2022-09-04T02:25:24.660Z,1010.7
2022-09-04T02:30:55.096Z,1010.7
2022-09-04T02:35:37.433Z,1010.7
2022-09-04T02:40:43.939Z,1010.7
2022-09-04T02:45:50.411Z,1010.8
2022-09-04T02:50:57.019Z,1010.8
2022-09-04T02:56:23.567Z,1010.9
2022-09-04T03:01:10.035Z,1010.9
2022-09-04T03:06:16.261Z,1010.9
2022-09-04T03:11:22.633Z,1011.0
2022-09-04T03:16:32.681Z,1011.1
2022-09-04T03:21:38.969Z,1011.1
2022-09-04T03:26:45.341Z,1011.0
2022-09-04T03:31:51.846Z,1011.2
2022-09-04T03:36:58.163Z,1011.3
2022-09-04T03:42:04.643Z,1011.2
2022-09-04T03:47:14.398Z,1011.3
2022-09-04T03:52:20.785Z,1011.4
2022-09-04T03:57:27.162Z,1011.4
2022-09-04T04:02:33.620Z,1011.4
2022-09-04T04:07:59.995Z,1011.4
2022-09-04T04:12:46.314Z,1011.3
2022-09-04T04:19:28.418Z,1011.5
2022-09-04T04:23:46.703Z,1011.5
2022-09-04T04:29:37.178Z,1011.6
2022-09-04T04:34:19.515Z,1011.6
2022-09-04T04:39:30.512Z,1011.6
2022-09-04T04:44:12.241Z,1011.6
2022-09-04T04:49:38.651Z,1011.7
2022-09-04T04:54:24.983Z,1011.8
2022-09-04T05:05:49.894Z,1011.9
2022-09-04T05:15:09.540Z,1011.9
2022-09-04T05:20:00.909Z,1012.0
2022-09-04T05:26:03.405Z,1012.1
2022-09-04T05:30:29.698Z,1012.1
2022-09-04T05:35:36.064Z,1012.2
2022-09-04T05:40:22.414Z,1012.3
2022-09-04T05:45:28.790Z,1012.4
2022-09-04T05:50:35.171Z,1012.4
2022-09-04T05:55:41.541Z,1012.5
2022-09-04T06:05:54.282Z,1012.6
2022-09-04T06:09:51.490Z,1012.5
2022-09-04T06:11:23.683Z,1012.8
2022-09-04T06:16:51.118Z,1012.8
2022-09-04T06:21:03.446Z,1012.8
2022-09-04T06:31:46.323Z,1012.8
2022-09-04T06:33:28.513Z,1012.8
2022-09-04T06:42:55.211Z,1012.8
2022-09-04T06:46:35.524Z,1012.9
2022-09-04T06:53:06.033Z,1012.8
2022-09-04T06:58:14.489Z,1012.9
2022-09-04T07:03:20.986Z,1013.0
2022-09-04T07:08:17.441Z,1013.1
2022-09-04T07:13:53.923Z,1013.0
2022-09-04T07:18:44.301Z,1013.2
2022-09-04T07:24:06.700Z,1013.1
2022-09-04T07:28:43.024Z,1013.1
2022-09-04T07:34:03.453Z,1013.2
2022-09-04T07:39:05.805Z,1013.3
2022-09-04T07:44:12.191Z,1013.4
2022-09-04T07:49:18.576Z,1013.4
2022-09-04T07:54:24.958Z,1013.4
2022-09-04T07:59:31.401Z,1013.4
2022-09-04T08:04:37.984Z,1013.4
2022-09-04T08:09:44.382Z,1013.2
2022-09-04T08:14:50.887Z,1013.2
2022-09-04T08:19:47.256Z,1013.4
2022-09-04T08:25:17.688Z,1013.4
2022-09-04T08:30:13.057Z,1013.3
2022-09-04T08:38:29.464Z,1013.3
2022-09-04T08:42:46.730Z,1013.2
2022-09-04T08:47:55.003Z,1013.2
2022-09-04T08:53:03.882Z,1013.2
2022-09-04T08:58:07.784Z,1013.2
2022-09-04T09:03:34.954Z,1013.2
2022-09-04T09:08:49.944Z,1013.2
2022-09-04T09:18:24.773Z,1013.2
2022-09-04T09:24:41.209Z,1013.1
2022-09-04T09:28:47.704Z,1013.1
2022-09-04T09:33:54.170Z,1012.9
2022-09-04T09:39:00.556Z,1013.0
2022-09-04T09:44:06.922Z,1012.9
2022-09-04T09:55:14.868Z,1012.8
2022-09-04T10:00:12.236Z,1012.7
2022-09-04T10:05:28.707Z,1012.7
2022-09-04T10:10:35.088Z,1012.6
2022-09-04T10:15:41.484Z,1012.5
2022-09-04T10:21:01.875Z,1012.4
2022-09-04T10:25:58.239Z,1012.4
2022-09-04T10:31:00.729Z,1012.3
2022-09-04T10:36:06.969Z,1012.2
2022-09-04T10:41:28.477Z,1012.2
2022-09-04T10:46:13.794Z,1012.1
2022-09-04T10:51:27.232Z,1012.0
2022-09-04T10:56:33.614Z,1012.1
2022-09-04T11:01:39.989Z,1012.2
2022-09-04T11:07:06.411Z,1012.0
2022-09-04T11:11:52.841Z,1012.0
2022-09-04T11:17:19.781Z,1012.2
2022-09-04T11:22:05.598Z,1012.2
2022-09-04T11:27:11.992Z,1012.8
2022-09-04T11:32:08.350Z,1012.8
2022-09-04T11:37:24.812Z,1012.6
2022-09-04T11:43:15.272Z,1012.3
2022-09-04T11:47:37.525Z,1012.3
2022-09-04T11:52:44.018Z,1012.1
2022-09-04T11:57:50.404Z,1012.0
2022-09-04T12:02:56.771Z,1012.7
2022-09-04T12:07:53.132Z,1013.0
2022-09-04T12:13:15.178Z,1013.0
2022-09-04T12:18:05.889Z,1012.9
2022-09-04T12:23:12.329Z,1013.2
2022-09-04T12:28:32.731Z,1013.0
2022-09-04T12:33:35.125Z,1012.9
2022-09-04T12:38:41.500Z,1012.8
2022-09-04T12:43:47.903Z,1013.0
2022-09-04T12:48:54.255Z,1012.8
2022-09-04T12:54:00.763Z,1013.3
2022-09-04T12:59:21.268Z,1013.1
2022-09-04T13:04:13.612Z,1012.8
2022-09-04T13:09:19.989Z,1013.4
2022-09-04T13:14:26.373Z,1013.2
2022-09-04T13:19:22.755Z,1013.4
2022-09-04T13:24:44.089Z,1013.4
2022-09-04T13:29:53.216Z,1013.2
2022-09-04T13:40:04.776Z,1013.4
2022-09-04T13:40:32.761Z,1013.2
2022-09-04T13:45:32.734Z,1013.3
2022-09-04T13:55:49.951Z,1013.3
2022-09-04T14:00:36.068Z,1013.2
2022-09-04T14:00:38.124Z,1013.4
2022-09-04T14:05:46.363Z,1013.3
2022-09-04T14:14:21.708Z,1012.8
2022-09-04T14:16:29.839Z,1013.0
2022-09-04T14:22:15.469Z,1012.9
2022-09-04T14:27:18.896Z,1013.0
2022-09-04T14:32:25.383Z,1012.9
2022-09-04T14:37:31.775Z,1012.7
2022-09-04T14:42:38.245Z,1012.7
2022-09-04T14:47:44.638Z,1012.7
2022-09-04T14:52:51.002Z,1012.7
2022-09-04T14:57:57.394Z,1012.7
2022-09-04T15:03:03.885Z,1012.7
2022-09-04T15:08:00.240Z,1012.7
2022-09-04T15:13:16.756Z,1012.7
2022-09-04T15:18:23.132Z,1012.8
2022-09-04T15:23:29.558Z,1012.7
2022-09-04T15:29:10.012Z,1012.7
2022-09-04T15:34:21.423Z,1012.8
2022-09-04T15:39:18.578Z,1012.8
2022-09-04T15:44:20.474Z,1012.9
2022-09-04T15:50:36.995Z,1012.8
2022-09-04T15:54:47.269Z,1012.9
2022-09-04T15:59:49.641Z,1012.9
2022-09-04T16:04:56.026Z,1012.9
2022-09-04T16:10:02.403Z,1012.8
2022-09-04T16:15:08.782Z,1012.9
2022-09-04T16:20:05.163Z,1012.9
2022-09-04T16:36:35.705Z,1012.9
2022-09-04T16:41:33.074Z,1012.9
2022-09-04T16:47:09.525Z,1013.0
2022-09-04T16:51:45.881Z,1013.1
2022-09-04T16:57:12.398Z,1013.0
2022-09-04T17:02:08.851Z,1013.1
2022-09-04T17:07:15.024Z,1013.1
2022-09-04T17:12:21.414Z,1013.0
2022-09-04T17:17:30.654Z,1013.1
2022-09-04T17:28:56.486Z,1013.1
2022-09-04T17:29:14.175Z,1013.2
2022-09-04T17:40:25.058Z,1013.2
2022-09-04T17:40:48.046Z,1013.2
2022-09-04T17:43:21.808Z,1013.3
2022-09-04T17:48:06.177Z,1013.3
2022-09-04T17:53:33.606Z,1013.2
2022-09-04T17:58:19.047Z,1013.3
2022-09-04T18:03:25.431Z,1013.3
2022-09-04T18:08:21.992Z,1013.3
2022-09-04T18:13:38.699Z,1013.3
2022-09-04T18:18:44.658Z,1013.4
2022-09-04T18:23:51.874Z,1013.4
2022-09-04T18:28:57.418Z,1013.5
2022-09-04T18:37:17.230Z,1013.5
2022-09-04T18:39:10.230Z,1013.7
2022-09-04T18:50:21.836Z,1013.8
2022-09-04T18:50:50.301Z,1013.8
2022-09-04T18:54:19.339Z,1013.7
2022-09-04T18:59:35.757Z,1013.9
2022-09-04T19:04:42.136Z,1013.9
2022-09-04T19:09:55.868Z,1014.0
2022-09-04T19:14:54.904Z,1014.0
2022-09-04T19:19:51.288Z,1014.1
2022-09-04T19:25:07.706Z,1014.0
2022-09-04T19:30:34.229Z,1014.1
2022-09-04T19:35:20.650Z,1014.1
2022-09-04T19:46:01.737Z,1014.1
2022-09-04T19:46:25.833Z,1014.2
2022-09-04T19:53:30.183Z,1014.2
2022-09-04T19:55:46.276Z,1014.2
2022-09-04T20:00:52.693Z,1014.2
2022-09-04T20:06:03.438Z,1014.2
2022-09-04T20:11:05.410Z,1014.2
2022-09-04T20:16:11.856Z,1014.3
2022-09-04T20:21:18.178Z,1014.3
2022-09-04T20:26:24.702Z,1014.4
2022-09-04T20:31:36.716Z,1014.3
2022-09-04T20:36:37.589Z,1014.4
2022-09-04T20:41:43.995Z,1014.4
2022-09-04T20:52:45.158Z,1014.4
2022-09-04T20:52:49.774Z,1014.4
2022-09-04T21:00:21.544Z,1014.5
2022-09-04T21:03:37.821Z,1014.5
2022-09-04T21:07:15.911Z,1014.5
2022-09-04T21:12:22.369Z,1014.5
2022-09-04T21:17:48.826Z,1014.5
2022-09-04T21:23:51.298Z,1014.6
2022-09-04T21:27:41.523Z,1014.6
2022-09-04T21:33:35.819Z,1014.6
2022-09-04T21:37:54.299Z,1014.6
2022-09-04T21:43:00.793Z,1014.6
2022-09-04T21:48:07.165Z,1014.6
2022-09-04T21:53:33.588Z,1014.7
2022-09-04T22:02:42.743Z,1014.7
2022-09-04T22:03:40.470Z,1014.8
2022-09-04T22:12:50.252Z,1014.9
2022-09-04T22:13:49.993Z,1014.9
2022-09-04T22:18:45.426Z,1014.9
2022-09-04T22:23:51.875Z,1014.8
2022-09-04T22:28:58.359Z,1014.9
2022-09-04T22:34:16.054Z,1014.8
2022-09-04T22:39:11.242Z,1014.8
2022-09-04T22:44:17.640Z,1014.9
2022-09-04T22:49:24.046Z,1014.9
2022-09-04T22:54:30.418Z,1014.9
2022-09-04T22:59:36.806Z,1014.8
2022-09-04T23:04:43.734Z,1014.8
2022-09-04T23:13:56.457Z,1014.8
2022-09-04T23:26:33.668Z,1014.8
2022-09-04T23:26:42.856Z,1014.8
2022-09-04T23:30:15.143Z,1014.8
2022-09-04T23:35:45.591Z,1014.8
2022-09-04T23:40:27.904Z,1014.8
2022-09-04T23:46:01.938Z,1014.8
2022-09-04T23:50:40.831Z,1014.8
2022-09-04T23:55:48.587Z,1014.8
